sensor_id;sensor_type;location;lat;lon;timestamp;pressure;altitude;pressure_sealevel;temperature;humidity
28683;BME280;15862;43.062;25.626;2023-01-09T00:01:55;100455.69;;;-1.37;100.00
28683;BME280;15862;43.062;25.626;2023-01-09T00:04:21;100462.44;;;-1.37;100.00
28683;BME280;15862;43.062;25.626;2023-01-09T00:06:46;100460.97;;;-1.50;100.00
28683;BME280;15862;43.062;25.626;2023-01-09T00:09:19;100462.69;;;-1.52;100.00
28683;BME280;15862;43.062;25.626;2023-01-09T00:11:45;100458.53;;;-1.54;100.00
28683;BME280;15862;43.062;25.626;2023-01-09T00:14:10;100452.75;;;-1.61;100.00
28683;BME280;15862;43.062;25.626;2023-01-09T00:16:36;100453.78;;;-1.72;100.00
28683;BME280;15862;43.062;25.626;2023-01-09T00:19:01;100449.53;;;-1.72;100.00
28683;BME280;15862;43.062;25.626;2023-01-09T00:21:27;100447.00;;;-1.72;100.00
28683;BME280;15862;43.062;25.626;2023-01-09T00:23:53;100438.63;;;-1.75;100.00
28683;BME280;15862;43.062;25.626;2023-01-09T00:26:19;100442.81;;;-1.74;100.00
28683;BME280;15862;43.062;25.626;2023-01-09T00:28:46;100418.59;;;-1.90;100.00
28683;BME280;15862;43.062;25.626;2023-01-09T00:31:12;100442.78;;;-1.73;100.00
28683;BME280;15862;43.062;25.626;2023-01-09T00:33:48;100441.03;;;-1.68;100.00
28683;BME280;15862;43.062;25.626;2023-01-09T00:36:14;100435.13;;;-1.68;100.00
28683;BME280;15862;43.062;25.626;2023-01-09T00:38:39;100437.69;;;-1.70;100.00
28683;BME280;15862;43.062;25.626;2023-01-09T00:41:07;100419.25;;;-1.78;100.00
28683;BME280;15862;43.062;25.626;2023-01-09T00:43:39;100433.44;;;-1.69;100.00
28683;BME280;15862;43.062;25.626;2023-01-09T00:46:07;100433.41;;;-1.66;100.00
28683;BME280;15862;43.062;25.626;2023-01-09T00:48:34;100437.69;;;-1.70;100.00
28683;BME280;15862;43.062;25.626;2023-01-09T00:51:01;100437.72;;;-1.71;100.00
28683;BME280;15862;43.062;25.626;2023-01-09T00:53:30;100439.47;;;-1.75;100.00
28683;BME280;15862;43.062;25.626;2023-01-09T00:56:01;100431.88;;;-1.76;100.00
28683;BME280;15862;43.062;25.626;2023-01-09T00:58:28;100440.44;;;-1.83;100.00
28683;BME280;15862;43.062;25.626;2023-01-09T01:00:53;100426.09;;;-1.83;100.00
28683;BME280;15862;43.062;25.626;2023-01-09T01:03:19;100432.88;;;-1.85;100.00
28683;BME280;15862;43.062;25.626;2023-01-09T01:05:44;100427.88;;;-1.89;100.00
28683;BME280;15862;43.062;25.626;2023-01-09T01:08:28;100421.81;;;-1.81;100.00
28683;BME280;15862;43.062;25.626;2023-01-09T01:10:53;100420.00;;;-1.73;100.00
28683;BME280;15862;43.062;25.626;2023-01-09T01:13:19;100418.50;;;-1.83;100.00
28683;BME280;15862;43.062;25.626;2023-01-09T01:15:45;100426.94;;;-1.85;100.00
28683;BME280;15862;43.062;25.626;2023-01-09T01:18:11;100415.25;;;-1.91;100.00
28683;BME280;15862;43.062;25.626;2023-01-09T01:20:42;100411.78;;;-1.85;100.00
28683;BME280;15862;43.062;25.626;2023-01-09T01:23:08;100417.66;;;-1.82;100.00
28683;BME280;15862;43.062;25.626;2023-01-09T01:25:38;100408.41;;;-1.86;100.00
28683;BME280;15862;43.062;25.626;2023-01-09T01:28:04;100406.78;;;-1.88;100.00
28683;BME280;15862;43.062;25.626;2023-01-09T01:30:30;100405.06;;;-1.86;100.00
28683;BME280;15862;43.062;25.626;2023-01-09T01:32:56;100395.75;;;-1.86;100.00
28683;BME280;15862;43.062;25.626;2023-01-09T01:35:21;100393.31;;;-1.90;100.00
28683;BME280;15862;43.062;25.626;2023-01-09T01:37:47;100396.81;;;-1.99;100.00
28683;BME280;15862;43.062;25.626;2023-01-09T01:40:14;100392.63;;;-2.00;100.00
28683;BME280;15862;43.062;25.626;2023-01-09T01:42:52;100387.53;;;-1.97;100.00
28683;BME280;15862;43.062;25.626;2023-01-09T01:45:23;100395.88;;;-1.92;100.00
28683;BME280;15862;43.062;25.626;2023-01-09T01:48:11;100392.47;;;-1.91;100.00
28683;BME280;15862;43.062;25.626;2023-01-09T01:50:42;100393.44;;;-1.98;100.00
28683;BME280;15862;43.062;25.626;2023-01-09T01:53:15;100381.81;;;-2.11;100.00
28683;BME280;15862;43.062;25.626;2023-01-09T01:58:41;100354.19;;;-2.23;100.00
28683;BME280;15862;43.062;25.626;2023-01-09T02:01:07;100368.25;;;-2.04;100.00
28683;BME280;15862;43.062;25.626;2023-01-09T02:03:33;100370.78;;;-2.04;100.00
28683;BME280;15862;43.062;25.626;2023-01-09T02:06:01;100363.97;;;-2.02;100.00
28683;BME280;15862;43.062;25.626;2023-01-09T02:08:29;100364.53;;;-1.85;100.00
28683;BME280;15862;43.062;25.626;2023-01-09T02:10:55;100361.00;;;-1.75;100.00
28683;BME280;15862;43.062;25.626;2023-01-09T02:13:20;100365.81;;;-1.60;100.00
28683;BME280;15862;43.062;25.626;2023-01-09T02:21:19;100361.53;;;-1.13;100.00
28683;BME280;15862;43.062;25.626;2023-01-09T02:37:50;100355.06;;;-0.49;100.00
28683;BME280;15862;43.062;25.626;2023-01-09T02:40:24;100368.31;;;-0.36;100.00
28683;BME280;15862;43.062;25.626;2023-01-09T02:42:54;100357.25;;;-0.34;100.00
28683;BME280;15862;43.062;25.626;2023-01-09T02:45:21;100351.22;;;-0.28;100.00
28683;BME280;15862;43.062;25.626;2023-01-09T02:47:47;100355.34;;;-0.23;100.00
28683;BME280;15862;43.062;25.626;2023-01-09T02:50:30;100341.66;;;-0.17;100.00
28683;BME280;15862;43.062;25.626;2023-01-09T02:53:18;100333.88;;;-0.10;100.00
28683;BME280;15862;43.062;25.626;2023-01-09T03:03:48;100311.69;;;-0.03;100.00
28683;BME280;15862;43.062;25.626;2023-01-09T03:06:21;100316.81;;;-0.05;100.00
28683;BME280;15862;43.062;25.626;2023-01-09T03:08:52;100307.41;;;-0.02;100.00
28683;BME280;15862;43.062;25.626;2023-01-09T03:11:18;100320.03;;;0.01;100.00
28683;BME280;15862;43.062;25.626;2023-01-09T03:13:51;100296.06;;;0.13;100.00
28683;BME280;15862;43.062;25.626;2023-01-09T03:16:23;100308.81;;;0.10;100.00
28683;BME280;15862;43.062;25.626;2023-01-09T03:18:52;100309.19;;;-0.05;100.00
28683;BME280;15862;43.062;25.626;2023-01-09T03:21:20;100310.25;;;-0.13;100.00
28683;BME280;15862;43.062;25.626;2023-01-09T03:26:16;100294.34;;;-0.20;100.00
28683;BME280;15862;43.062;25.626;2023-01-09T03:28:41;100305.19;;;-0.13;100.00
28683;BME280;15862;43.062;25.626;2023-01-09T03:31:07;100307.56;;;-0.07;100.00
28683;BME280;15862;43.062;25.626;2023-01-09T03:33:33;100303.47;;;-0.13;100.00
28683;BME280;15862;43.062;25.626;2023-01-09T03:35:58;100305.25;;;-0.16;100.00
28683;BME280;15862;43.062;25.626;2023-01-09T03:38:23;100295.84;;;-0.11;100.00
28683;BME280;15862;43.062;25.626;2023-01-09T03:40:49;100306.00;;;-0.11;100.00
28683;BME280;15862;43.062;25.626;2023-01-09T03:43:15;100301.03;;;-0.16;100.00
28683;BME280;15862;43.062;25.626;2023-01-09T03:45:41;100306.88;;;-0.14;100.00
28683;BME280;15862;43.062;25.626;2023-01-09T03:48:07;100317.94;;;-0.16;100.00
28683;BME280;15862;43.062;25.626;2023-01-09T03:50:33;100319.72;;;-0.20;100.00
28683;BME280;15862;43.062;25.626;2023-01-09T03:52:58;100318.91;;;-0.20;100.00
28683;BME280;15862;43.062;25.626;2023-01-09T03:55:24;100324.78;;;-0.20;100.00
28683;BME280;15862;43.062;25.626;2023-01-09T03:57:49;100335.91;;;-0.25;100.00
28683;BME280;15862;43.062;25.626;2023-01-09T04:00:17;100342.00;;;-0.31;100.00
28683;BME280;15862;43.062;25.626;2023-01-09T04:02:43;100335.28;;;-0.35;100.00
28683;BME280;15862;43.062;25.626;2023-01-09T04:05:08;100335.53;;;-0.44;100.00
28683;BME280;15862;43.062;25.626;2023-01-09T04:07:34;100328.13;;;-0.54;100.00
28683;BME280;15862;43.062;25.626;2023-01-09T04:09:59;100331.66;;;-0.60;100.00
28683;BME280;15862;43.062;25.626;2023-01-09T04:12:25;100339.50;;;-0.70;100.00
28683;BME280;15862;43.062;25.626;2023-01-09T04:14:50;100329.66;;;-0.83;100.00
28683;BME280;15862;43.062;25.626;2023-01-09T04:17:16;100335.53;;;-0.81;100.00
28683;BME280;15862;43.062;25.626;2023-01-09T04:19:41;100308.81;;;-0.97;100.00
28683;BME280;15862;43.062;25.626;2023-01-09T04:22:07;100339.91;;;-0.89;100.00
28683;BME280;15862;43.062;25.626;2023-01-09T04:24:32;100345.13;;;-0.95;100.00
28683;BME280;15862;43.062;25.626;2023-01-09T04:26:58;100351.09;;;-0.99;100.00
28683;BME280;15862;43.062;25.626;2023-01-09T04:29:23;100350.38;;;-1.04;100.00
28683;BME280;15862;43.062;25.626;2023-01-09T04:31:49;100346.19;;;-1.07;100.00
28683;BME280;15862;43.062;25.626;2023-01-09T04:34:14;100347.22;;;-1.17;100.00
28683;BME280;15862;43.062;25.626;2023-01-09T04:36:40;100351.66;;;-1.26;100.00
28683;BME280;15862;43.062;25.626;2023-01-09T04:39:07;100341.63;;;-1.32;100.00
28683;BME280;15862;43.062;25.626;2023-01-09T04:41:32;100354.09;;;-1.23;100.00
28683;BME280;15862;43.062;25.626;2023-01-09T04:44:17;100359.78;;;-1.09;100.00
28683;BME280;15862;43.062;25.626;2023-01-09T04:46:43;100344.66;;;-1.14;100.00
28683;BME280;15862;43.062;25.626;2023-01-09T04:49:08;100358.78;;;-1.02;100.00
28683;BME280;15862;43.062;25.626;2023-01-09T04:51:34;100350.41;;;-1.06;100.00
28683;BME280;15862;43.062;25.626;2023-01-09T04:53:59;100350.97;;;-0.92;100.00
28683;BME280;15862;43.062;25.626;2023-01-09T04:56:25;100347.66;;;-0.95;100.00
28683;BME280;15862;43.062;25.626;2023-01-09T04:58:50;100354.34;;;-0.93;100.00
28683;BME280;15862;43.062;25.626;2023-01-09T05:01:15;100353.41;;;-0.87;100.00
28683;BME280;15862;43.062;25.626;2023-01-09T05:03:41;100365.94;;;-0.81;100.00
28683;BME280;15862;43.062;25.626;2023-01-09T05:06:06;100351.88;;;-0.96;100.00
28683;BME280;15862;43.062;25.626;2023-01-09T05:08:32;100366.00;;;-0.84;100.00
28683;BME280;15862;43.062;25.626;2023-01-09T05:10:57;100358.56;;;-0.93;100.00
28683;BME280;15862;43.062;25.626;2023-01-09T05:13:23;100370.97;;;-0.80;100.00
28683;BME280;15862;43.062;25.626;2023-01-09T05:15:48;100375.00;;;-0.72;100.00
28683;BME280;15862;43.062;25.626;2023-01-09T05:18:14;100378.34;;;-0.70;100.00
28683;BME280;15862;43.062;25.626;2023-01-09T05:20:39;100380.22;;;-0.77;100.00
28683;BME280;15862;43.062;25.626;2023-01-09T05:23:05;100364.31;;;-0.85;100.00
28683;BME280;15862;43.062;25.626;2023-01-09T05:25:30;100374.38;;;-0.81;100.00
28683;BME280;15862;43.062;25.626;2023-01-09T05:27:55;100363.72;;;-0.96;100.00
28683;BME280;15862;43.062;25.626;2023-01-09T05:30:21;100384.13;;;-1.02;100.00
28683;BME280;15862;43.062;25.626;2023-01-09T05:32:46;100375.84;;;-1.10;100.00
28683;BME280;15862;43.062;25.626;2023-01-09T05:35:12;100376.84;;;-1.20;100.00
28683;BME280;15862;43.062;25.626;2023-01-09T05:37:37;100374.56;;;-1.32;100.00
28683;BME280;15862;43.062;25.626;2023-01-09T05:40:03;100377.19;;;-1.37;100.00
28683;BME280;15862;43.062;25.626;2023-01-09T05:42:28;100371.41;;;-1.45;100.00
28683;BME280;15862;43.062;25.626;2023-01-09T05:44:54;100363.94;;;-1.52;100.00
28683;BME280;15862;43.062;25.626;2023-01-09T05:47:19;100347.28;;;-1.62;100.00
28683;BME280;15862;43.062;25.626;2023-01-09T05:49:44;100358.09;;;-1.54;100.00
28683;BME280;15862;43.062;25.626;2023-01-09T05:52:10;100361.59;;;-1.61;100.00
28683;BME280;15862;43.062;25.626;2023-01-09T05:54:35;100356.53;;;-1.61;100.00
28683;BME280;15862;43.062;25.626;2023-01-09T05:57:01;100350.63;;;-1.61;100.00
28683;BME280;15862;43.062;25.626;2023-01-09T05:59:26;100360.66;;;-1.57;100.00
28683;BME280;15862;43.062;25.626;2023-01-09T06:01:51;100361.44;;;-1.53;100.00
28683;BME280;15862;43.062;25.626;2023-01-09T06:04:18;100357.81;;;-1.39;100.00
28683;BME280;15862;43.062;25.626;2023-01-09T06:06:43;100376.03;;;-1.21;100.00
28683;BME280;15862;43.062;25.626;2023-01-09T06:09:09;100377.38;;;-1.05;100.00
28683;BME280;15862;43.062;25.626;2023-01-09T06:11:34;100382.16;;;-0.90;100.00
28683;BME280;15862;43.062;25.626;2023-01-09T06:14:03;100374.38;;;-0.81;100.00
28683;BME280;15862;43.062;25.626;2023-01-09T06:16:28;100375.97;;;-0.76;100.00
28683;BME280;15862;43.062;25.626;2023-01-09T06:18:54;100370.69;;;-0.67;100.00
28683;BME280;15862;43.062;25.626;2023-01-09T06:21:19;100362.81;;;-0.55;100.00
28683;BME280;15862;43.062;25.626;2023-01-09T06:23:44;100357.56;;;-0.46;100.00
28683;BME280;15862;43.062;25.626;2023-01-09T06:26:10;100363.06;;;-0.29;100.00
28683;BME280;15862;43.062;25.626;2023-01-09T06:28:35;100363.81;;;-0.24;100.00
28683;BME280;15862;43.062;25.626;2023-01-09T06:31:01;100362.72;;;-0.14;100.00
28683;BME280;15862;43.062;25.626;2023-01-09T06:33:26;100354.88;;;-0.05;100.00
28683;BME280;15862;43.062;25.626;2023-01-09T06:35:52;100352.19;;;0.02;100.00
28683;BME280;15862;43.062;25.626;2023-01-09T06:38:18;100343.44;;;0.12;100.00
28683;BME280;15862;43.062;25.626;2023-01-09T06:40:44;100339.88;;;0.21;100.00
28683;BME280;15862;43.062;25.626;2023-01-09T06:43:09;100334.59;;;0.28;100.00
28683;BME280;15862;43.062;25.626;2023-01-09T06:45:35;100332.16;;;0.24;100.00
28683;BME280;15862;43.062;25.626;2023-01-09T06:48:00;100337.06;;;0.31;100.00
28683;BME280;15862;43.062;25.626;2023-01-09T06:50:26;100332.88;;;0.29;100.00
28683;BME280;15862;43.062;25.626;2023-01-09T06:52:51;100332.56;;;0.41;100.00
28683;BME280;15862;43.062;25.626;2023-01-09T06:55:17;100338.13;;;0.55;100.00
28683;BME280;15862;43.062;25.626;2023-01-09T06:57:42;100331.03;;;0.66;100.00
28683;BME280;15862;43.062;25.626;2023-01-09T07:00:08;100337.63;;;0.73;100.00
28683;BME280;15862;43.062;25.626;2023-01-09T07:02:34;100341.69;;;0.79;100.00
28683;BME280;15862;43.062;25.626;2023-01-09T07:04:59;100333.78;;;0.88;100.00
28683;BME280;15862;43.062;25.626;2023-01-09T07:07:25;100313.38;;;0.91;100.00
28683;BME280;15862;43.062;25.626;2023-01-09T07:09:51;100334.94;;;1.07;100.00
28683;BME280;15862;43.062;25.626;2023-01-09T07:12:17;100314.78;;;1.01;100.00
28683;BME280;15862;43.062;25.626;2023-01-09T07:14:42;100322.91;;;1.12;100.00
28683;BME280;15862;43.062;25.626;2023-01-09T07:17:13;100312.56;;;1.18;100.00
28683;BME280;15862;43.062;25.626;2023-01-09T07:19:39;100304.59;;;1.30;100.00
28683;BME280;15862;43.062;25.626;2023-01-09T07:22:04;100304.16;;;1.44;100.00
28683;BME280;15862;43.062;25.626;2023-01-09T07:24:29;100296.25;;;1.52;100.00
28683;BME280;15862;43.062;25.626;2023-01-09T07:26:55;100290.75;;;1.64;100.00
28683;BME280;15862;43.062;25.626;2023-01-09T07:29:20;100280.94;;;1.80;100.00
28683;BME280;15862;43.062;25.626;2023-01-09T07:31:46;100299.28;;;1.89;100.00
28683;BME280;15862;43.062;25.626;2023-01-09T07:34:12;100286.28;;;1.97;100.00
28683;BME280;15862;43.062;25.626;2023-01-09T07:36:37;100276.66;;;2.06;100.00
28683;BME280;15862;43.062;25.626;2023-01-09T07:39:03;100278.50;;;2.25;100.00
28683;BME280;15862;43.062;25.626;2023-01-09T07:41:28;100272.53;;;2.26;100.00
28683;BME280;15862;43.062;25.626;2023-01-09T07:43:59;100262.53;;;2.45;100.00
28683;BME280;15862;43.062;25.626;2023-01-09T07:46:25;100249.91;;;2.42;100.00
28683;BME280;15862;43.062;25.626;2023-01-09T07:48:50;100246.75;;;2.58;100.00
28683;BME280;15862;43.062;25.626;2023-01-09T07:51:15;100233.13;;;2.59;100.00
28683;BME280;15862;43.062;25.626;2023-01-09T07:53:41;100227.81;;;2.65;100.00
28683;BME280;15862;43.062;25.626;2023-01-09T07:56:06;100233.19;;;3.02;100.00
28683;BME280;15862;43.062;25.626;2023-01-09T07:58:32;100218.00;;;3.42;100.00
28683;BME280;15862;43.062;25.626;2023-01-09T08:00:57;100211.03;;;4.06;100.00
28683;BME280;15862;43.062;25.626;2023-01-09T08:03:23;100208.13;;;4.52;100.00
28683;BME280;15862;43.062;25.626;2023-01-09T08:05:48;100185.75;;;4.57;100.00
28683;BME280;15862;43.062;25.626;2023-01-09T08:08:14;100195.16;;;4.75;100.00
28683;BME280;15862;43.062;25.626;2023-01-09T08:10:40;100184.00;;;5.46;100.00
28683;BME280;15862;43.062;25.626;2023-01-09T08:13:05;100176.13;;;6.34;100.00
28683;BME280;15862;43.062;25.626;2023-01-09T08:15:30;100167.81;;;6.77;100.00
28683;BME280;15862;43.062;25.626;2023-01-09T08:17:57;100170.16;;;8.41;100.00
28683;BME280;15862;43.062;25.626;2023-01-09T08:20:23;100164.78;;;10.52;88.19
28683;BME280;15862;43.062;25.626;2023-01-09T08:22:48;100158.03;;;12.35;67.43
28683;BME280;15862;43.062;25.626;2023-01-09T08:25:15;100153.88;;;14.01;55.52
28683;BME280;15862;43.062;25.626;2023-01-09T08:27:41;100147.31;;;15.15;51.36
28683;BME280;15862;43.062;25.626;2023-01-09T08:30:07;100138.97;;;15.21;48.08
28683;BME280;15862;43.062;25.626;2023-01-09T08:32:34;100133.97;;;13.91;50.46
28683;BME280;15862;43.062;25.626;2023-01-09T08:35:00;100126.66;;;12.71;54.59
28683;BME280;15862;43.062;25.626;2023-01-09T08:37:25;100111.38;;;11.91;59.54
28683;BME280;15862;43.062;25.626;2023-01-09T08:39:50;100119.81;;;11.93;63.40
28683;BME280;15862;43.062;25.626;2023-01-09T08:42:17;100117.91;;;11.62;68.36
28683;BME280;15862;43.062;25.626;2023-01-09T08:45:01;100110.66;;;11.21;76.23
28683;BME280;15862;43.062;25.626;2023-01-09T08:47:45;100101.72;;;10.67;82.16
28683;BME280;15862;43.062;25.626;2023-01-09T08:50:10;100114.38;;;10.34;84.90
28683;BME280;15862;43.062;25.626;2023-01-09T08:52:37;100110.25;;;10.32;85.08
28683;BME280;15862;43.062;25.626;2023-01-09T08:55:03;100136.50;;;10.38;85.22
28683;BME280;15862;43.062;25.626;2023-01-09T08:57:28;100110.97;;;10.46;84.47
28683;BME280;15862;43.062;25.626;2023-01-09T08:59:54;100119.19;;;10.64;84.33
28683;BME280;15862;43.062;25.626;2023-01-09T09:02:19;100110.84;;;10.83;82.18
28683;BME280;15862;43.062;25.626;2023-01-09T09:04:44;100108.75;;;11.12;77.27
28683;BME280;15862;43.062;25.626;2023-01-09T09:07:11;100120.59;;;12.28;69.86
28683;BME280;15862;43.062;25.626;2023-01-09T09:09:36;100112.34;;;13.09;62.17
28683;BME280;15862;43.062;25.626;2023-01-09T09:12:02;100103.25;;;14.55;54.42
28683;BME280;15862;43.062;25.626;2023-01-09T09:14:27;100103.88;;;15.82;49.81
28683;BME280;15862;43.062;25.626;2023-01-09T09:17:11;100096.16;;;17.41;45.90
28683;BME280;15862;43.062;25.626;2023-01-09T09:19:37;100094.59;;;18.49;42.71
28683;BME280;15862;43.062;25.626;2023-01-09T09:22:03;100094.16;;;19.35;40.49
28683;BME280;15862;43.062;25.626;2023-01-09T09:24:29;100083.09;;;18.92;40.33
28683;BME280;15862;43.062;25.626;2023-01-09T09:26:54;100077.09;;;19.23;39.63
28683;BME280;15862;43.062;25.626;2023-01-09T09:29:20;100077.91;;;20.03;38.07
28683;BME280;15862;43.062;25.626;2023-01-09T09:31:45;100066.13;;;19.83;38.18
28683;BME280;15862;43.062;25.626;2023-01-09T09:34:10;100062.53;;;19.76;38.02
28683;BME280;15862;43.062;25.626;2023-01-09T09:36:37;100052.66;;;20.40;37.05
28683;BME280;15862;43.062;25.626;2023-01-09T09:39:02;100042.56;;;21.12;36.13
28683;BME280;15862;43.062;25.626;2023-01-09T09:52:48;100045.13;;;22.37;33.65
28683;BME280;15862;43.062;25.626;2023-01-09T09:55:20;100043.00;;;22.82;32.97
28683;BME280;15862;43.062;25.626;2023-01-09T09:57:49;100030.94;;;21.66;34.20
28683;BME280;15862;43.062;25.626;2023-01-09T10:00:21;100023.69;;;21.31;34.69
28683;BME280;15862;43.062;25.626;2023-01-09T10:02:56;100009.75;;;21.45;34.39
28683;BME280;15862;43.062;25.626;2023-01-09T10:05:36;100016.25;;;22.00;33.89
28683;BME280;15862;43.062;25.626;2023-01-09T10:08:31;100001.94;;;21.88;33.54
28683;BME280;15862;43.062;25.626;2023-01-09T10:10:53;100027.47;;;21.51;34.22
28683;BME280;15862;43.062;25.626;2023-01-09T10:13:22;100008.94;;;21.45;34.01
28683;BME280;15862;43.062;25.626;2023-01-09T10:19:14;100005.31;;;22.82;32.75
28683;BME280;15862;43.062;25.626;2023-01-09T10:24:49;100012.44;;;22.03;32.87
28683;BME280;15862;43.062;25.626;2023-01-09T10:38:04;99991.66;;;23.95;30.53
28683;BME280;15862;43.062;25.626;2023-01-09T10:40:49;99993.75;;;24.60;29.67
28683;BME280;15862;43.062;25.626;2023-01-09T10:43:29;99987.28;;;24.75;29.74
28683;BME280;15862;43.062;25.626;2023-01-09T10:46:05;99967.88;;;24.42;30.15
28683;BME280;15862;43.062;25.626;2023-01-09T10:48:35;99991.94;;;24.73;29.37
28683;BME280;15862;43.062;25.626;2023-01-09T10:51:04;99973.03;;;24.69;29.29
28683;BME280;15862;43.062;25.626;2023-01-09T10:53:38;99968.50;;;23.36;30.80
28683;BME280;15862;43.062;25.626;2023-01-09T10:56:22;99964.47;;;23.68;30.56
28683;BME280;15862;43.062;25.626;2023-01-09T10:58:48;99978.72;;;24.13;29.99
28683;BME280;15862;43.062;25.626;2023-01-09T11:01:17;99961.84;;;24.67;29.86
28683;BME280;15862;43.062;25.626;2023-01-09T11:03:45;99966.75;;;24.96;29.27
28683;BME280;15862;43.062;25.626;2023-01-09T11:06:20;99960.88;;;24.22;29.97
28683;BME280;15862;43.062;25.626;2023-01-09T11:08:48;99957.75;;;24.52;29.84
28683;BME280;15862;43.062;25.626;2023-01-09T11:11:35;99961.69;;;23.48;30.39
28683;BME280;15862;43.062;25.626;2023-01-09T11:14:25;99946.06;;;22.57;32.03
28683;BME280;15862;43.062;25.626;2023-01-09T11:16:59;99941.69;;;22.85;31.96
28683;BME280;15862;43.062;25.626;2023-01-09T11:19:26;99943.19;;;23.14;31.56
28683;BME280;15862;43.062;25.626;2023-01-09T11:22:15;99949.25;;;22.32;31.81
28683;BME280;15862;43.062;25.626;2023-01-09T11:24:41;99964.84;;;21.32;33.72
28683;BME280;15862;43.062;25.626;2023-01-09T11:29:41;99954.78;;;21.21;33.73
28683;BME280;15862;43.062;25.626;2023-01-09T11:32:20;99936.56;;;21.49;33.83
28683;BME280;15862;43.062;25.626;2023-01-09T11:34:47;99936.53;;;22.98;32.29
28683;BME280;15862;43.062;25.626;2023-01-09T11:37:23;99933.72;;;23.54;31.29
28683;BME280;15862;43.062;25.626;2023-01-09T11:39:50;99945.16;;;24.54;30.17
28683;BME280;15862;43.062;25.626;2023-01-09T11:42:21;99932.84;;;24.27;29.86
28683;BME280;15862;43.062;25.626;2023-01-09T11:45:43;99935.16;;;21.75;33.07
28683;BME280;15862;43.062;25.626;2023-01-09T11:48:18;99939.94;;;22.00;32.91
28683;BME280;15862;43.062;25.626;2023-01-09T11:50:53;99916.03;;;21.66;33.12
28683;BME280;15862;43.062;25.626;2023-01-09T11:53:20;99906.66;;;21.35;34.31
28683;BME280;15862;43.062;25.626;2023-01-09T11:55:46;99910.84;;;21.73;33.28
28683;BME280;15862;43.062;25.626;2023-01-09T11:58:18;99903.88;;;22.71;32.32
28683;BME280;15862;43.062;25.626;2023-01-09T12:04:14;99896.53;;;23.15;31.44
28683;BME280;15862;43.062;25.626;2023-01-09T12:17:50;99871.09;;;20.73;34.48
28683;BME280;15862;43.062;25.626;2023-01-09T12:30:55;99858.78;;;20.37;35.25
28683;BME280;15862;43.062;25.626;2023-01-09T12:36:12;99847.69;;;19.28;36.92
28683;BME280;15862;43.062;25.626;2023-01-09T12:38:39;99844.63;;;18.93;37.79
28683;BME280;15862;43.062;25.626;2023-01-09T12:41:18;99826.97;;;18.16;39.39
28683;BME280;15862;43.062;25.626;2023-01-09T12:46:23;99854.94;;;18.07;39.63
28683;BME280;15862;43.062;25.626;2023-01-09T12:54:11;99822.78;;;18.62;38.77
28683;BME280;15862;43.062;25.626;2023-01-09T12:56:49;99802.50;;;18.48;38.63
28683;BME280;15862;43.062;25.626;2023-01-09T12:59:40;99808.34;;;17.38;40.22
28683;BME280;15862;43.062;25.626;2023-01-09T13:07:38;99813.88;;;18.00;39.31
28683;BME280;15862;43.062;25.626;2023-01-09T13:10:13;99806.50;;;17.71;39.94
28683;BME280;15862;43.062;25.626;2023-01-09T13:12:41;99811.44;;;17.90;40.31
28683;BME280;15862;43.062;25.626;2023-01-09T13:17:52;99803.63;;;16.57;42.78
28683;BME280;15862;43.062;25.626;2023-01-09T13:20:35;99806.97;;;15.09;45.28
28683;BME280;15862;43.062;25.626;2023-01-09T13:23:04;99796.88;;;13.85;48.84
28683;BME280;15862;43.062;25.626;2023-01-09T13:25:42;99802.75;;;13.19;51.81
28683;BME280;15862;43.062;25.626;2023-01-09T13:28:26;99775.84;;;12.40;56.72
28683;BME280;15862;43.062;25.626;2023-01-09T13:33:34;99811.56;;;11.85;64.97
28683;BME280;15862;43.062;25.626;2023-01-09T13:36:01;99816.06;;;11.72;68.10
28683;BME280;15862;43.062;25.626;2023-01-09T13:38:31;99809.75;;;11.65;68.90
28683;BME280;15862;43.062;25.626;2023-01-09T13:41:04;99808.81;;;11.55;70.06
28683;BME280;15862;43.062;25.626;2023-01-09T13:43:59;99796.16;;;11.31;71.26
28683;BME280;15862;43.062;25.626;2023-01-09T13:46:45;99808.22;;;11.30;72.96
28683;BME280;15862;43.062;25.626;2023-01-09T13:57:28;99806.28;;;10.90;75.76
28683;BME280;15862;43.062;25.626;2023-01-09T13:59:58;99802.50;;;10.83;76.80
28683;BME280;15862;43.062;25.626;2023-01-09T14:04:59;99815.63;;;10.69;79.37
28683;BME280;15862;43.062;25.626;2023-01-09T14:07:26;99814.09;;;10.66;79.97
28683;BME280;15862;43.062;25.626;2023-01-09T14:09:58;99807.63;;;10.61;80.56
28683;BME280;15862;43.062;25.626;2023-01-09T14:12:25;99805.63;;;10.54;81.80
28683;BME280;15862;43.062;25.626;2023-01-09T14:14:54;99793.19;;;10.48;82.58
28683;BME280;15862;43.062;25.626;2023-01-09T14:17:29;99798.22;;;10.38;83.60
28683;BME280;15862;43.062;25.626;2023-01-09T14:19:57;99805.22;;;10.25;85.49
28683;BME280;15862;43.062;25.626;2023-01-09T14:22:26;99816.22;;;10.16;86.52
28683;BME280;15862;43.062;25.626;2023-01-09T14:24:52;99811.34;;;10.01;87.76
28683;BME280;15862;43.062;25.626;2023-01-09T14:38:29;99787.28;;;9.54;92.51
28683;BME280;15862;43.062;25.626;2023-01-09T14:41:00;99800.56;;;9.60;92.67
28683;BME280;15862;43.062;25.626;2023-01-09T14:44:02;99791.16;;;9.48;93.78
28683;BME280;15862;43.062;25.626;2023-01-09T14:46:32;99796.81;;;9.41;94.51
28683;BME280;15862;43.062;25.626;2023-01-09T14:51:28;99803.25;;;9.23;96.90
28683;BME280;15862;43.062;25.626;2023-01-09T14:53:56;99794.81;;;9.21;96.72
28683;BME280;15862;43.062;25.626;2023-01-09T14:56:30;99798.03;;;9.12;97.47
28683;BME280;15862;43.062;25.626;2023-01-09T14:59:10;99792.69;;;9.03;98.39
28683;BME280;15862;43.062;25.626;2023-01-09T15:01:37;99771.69;;;8.96;98.75